This is the latest recevied weather packets stored in our database for station/object DG1UDO-13. If no packets are shown the sender has not sent any weather packets the latest 1 day(s).
| Time | Temp. | Humidity | Pressure | Rain* | Wind** | Luminosity | Snow |
|---|---|---|---|---|---|---|---|
| 1777977300 | 12.22° C | 76% | 1012.2 hPa | - | 1.34 m/s, 31° | - | - |
| 1777975500 | 12.22° C | 78% | 1012.4 hPa | - | 3.58 m/s, 16° | - | - |
| 1777973700 | 11.67° C | 79% | 1012.4 hPa | - | 1.34 m/s, 6° | - | - |
| 1777971900 | 10.56° C | 83% | 1012.3 hPa | - | 1.34 m/s, 40° | - | - |
| 1777970100 | 9.44° C | 88% | 1012.5 hPa | - | 0.89 m/s, 56° | - | - |
| 1777968300 | 8.89° C | 90% | 1012.5 hPa | - | 1.79 m/s, 44° | - | - |
| 1777966500 | 8.33° C | 91% | 1012.8 hPa | - | 1.34 m/s, 2° | - | - |
| 1777964700 | 8.33° C | 92% | 1012.6 hPa | - | 1.34 m/s, 52° | - | - |
| 1777962900 | 7.78° C | 92% | 1012.8 hPa | - | 2.68 m/s, 7° | - | - |
| 1777961100 | 7.78° C | 92% | 1012.7 hPa | - | 0.89 m/s, 39° | - | - |
| 1777959300 | 7.22° C | 92% | 1012.6 hPa | - | 1.34 m/s, 58° | - | - |
| 1777957500 | 7.22° C | 92% | 1012.6 hPa | - | 1.34 m/s, 66° | - | - |
| 1777955700 | 7.22° C | 93% | 1012.5 hPa | - | 0.45 m/s, 60° | - | - |
| 1777953900 | 7.22° C | 94% | 1012.5 hPa | - | 0.89 m/s, 34° | - | - |
| 1777952100 | 7.22° C | 94% | 1012.7 hPa | - | 0 m/s | - | - |
| 1777950300 | 7.78° C | 94% | 1012.9 hPa | - | 0.45 m/s, 352° | - | - |
| 1777948500 | 7.78° C | 92% | 1012.9 hPa | - | 0.45 m/s, 17° | - | - |
| 1777946700 | 8.33° C | 89% | 1013 hPa | - | 0.45 m/s, 15° | - | - |
| 1777944900 | 8.33° C | 87% | 1013.2 hPa | - | 1.34 m/s, 46° | - | - |
| 1777943100 | 8.33° C | 89% | 1013.4 hPa | - | 0.45 m/s, 10° | - | - |
| 1777941300 | 8.33° C | 89% | 1013.9 hPa | - | 0.89 m/s, 349° | - | - |
| 1777939502 | 8.89° C | 88% | 1014 hPa | - | 0 m/s | - | - |
| 1777937700 | 8.89° C | 87% | 1013.8 hPa | - | 2.24 m/s, 39° | - | - |
* Rain since midnight (hover to see other rain measurements)
** Current wind speed in m/s (hover to see current wind gust speed)